sensor_id;sensor_type;location;lat;lon;timestamp;P1;durP1;ratioP1;P2;durP2;ratioP2
65853;SDS011;52627;48.838;2.402;2023-02-15T00:00:08;46.30;;;26.50;;
65853;SDS011;52627;48.838;2.402;2023-02-15T00:02:39;46.90;;;26.40;;
65853;SDS011;52627;48.838;2.402;2023-02-15T00:05:07;45.50;;;26.90;;
65853;SDS011;52627;48.838;2.402;2023-02-15T00:07:35;46.90;;;26.50;;
65853;SDS011;52627;48.838;2.402;2023-02-15T00:10:03;46.40;;;27.00;;
65853;SDS011;52627;48.838;2.402;2023-02-15T00:12:31;46.20;;;26.00;;
65853;SDS011;52627;48.838;2.402;2023-02-15T00:14:58;47.50;;;27.70;;
65853;SDS011;52627;48.838;2.402;2023-02-15T00:17:29;47.70;;;26.10;;
65853;SDS011;52627;48.838;2.402;2023-02-15T00:19:57;46.50;;;26.20;;
65853;SDS011;52627;48.838;2.402;2023-02-15T00:22:25;49.40;;;26.80;;
65853;SDS011;52627;48.838;2.402;2023-02-15T00:24:53;48.50;;;25.70;;
65853;SDS011;52627;48.838;2.402;2023-02-15T00:27:20;46.80;;;25.60;;
65853;SDS011;52627;48.838;2.402;2023-02-15T00:29:48;54.10;;;27.90;;
65853;SDS011;52627;48.838;2.402;2023-02-15T00:32:15;48.80;;;25.00;;
65853;SDS011;52627;48.838;2.402;2023-02-15T00:34:42;47.10;;;25.60;;
65853;SDS011;52627;48.838;2.402;2023-02-15T00:37:10;51.30;;;27.70;;
65853;SDS011;52627;48.838;2.402;2023-02-15T00:39:37;43.90;;;26.60;;
65853;SDS011;52627;48.838;2.402;2023-02-15T00:42:05;49.50;;;26.90;;
65853;SDS011;52627;48.838;2.402;2023-02-15T00:44:32;46.40;;;25.10;;
65853;SDS011;52627;48.838;2.402;2023-02-15T00:47:00;48.70;;;26.50;;
65853;SDS011;52627;48.838;2.402;2023-02-15T00:49:27;49.30;;;26.50;;
65853;SDS011;52627;48.838;2.402;2023-02-15T00:51:54;45.70;;;25.80;;
65853;SDS011;52627;48.838;2.402;2023-02-15T00:54:22;46.80;;;26.50;;
65853;SDS011;52627;48.838;2.402;2023-02-15T00:56:49;49.10;;;26.70;;
65853;SDS011;52627;48.838;2.402;2023-02-15T00:59:17;50.70;;;26.80;;
65853;SDS011;52627;48.838;2.402;2023-02-15T01:01:44;49.10;;;27.50;;
65853;SDS011;52627;48.838;2.402;2023-02-15T01:04:12;47.20;;;27.00;;
65853;SDS011;52627;48.838;2.402;2023-02-15T01:06:39;52.50;;;27.90;;
65853;SDS011;52627;48.838;2.402;2023-02-15T01:09:07;56.80;;;30.40;;
65853;SDS011;52627;48.838;2.402;2023-02-15T01:11:34;46.10;;;26.60;;
65853;SDS011;52627;48.838;2.402;2023-02-15T01:14:02;50.70;;;28.80;;
65853;SDS011;52627;48.838;2.402;2023-02-15T01:16:30;54.00;;;31.30;;
65853;SDS011;52627;48.838;2.402;2023-02-15T01:18:57;51.10;;;28.30;;
65853;SDS011;52627;48.838;2.402;2023-02-15T01:21:25;55.70;;;30.50;;
65853;SDS011;52627;48.838;2.402;2023-02-15T01:23:53;55.80;;;29.90;;
65853;SDS011;52627;48.838;2.402;2023-02-15T01:26:21;55.90;;;30.20;;
65853;SDS011;52627;48.838;2.402;2023-02-15T01:28:48;55.10;;;30.70;;
65853;SDS011;52627;48.838;2.402;2023-02-15T01:31:17;60.10;;;32.70;;
65853;SDS011;52627;48.838;2.402;2023-02-15T01:33:47;59.00;;;32.20;;
65853;SDS011;52627;48.838;2.402;2023-02-15T01:36:15;55.40;;;31.20;;
65853;SDS011;52627;48.838;2.402;2023-02-15T01:38:45;57.30;;;31.70;;
65853;SDS011;52627;48.838;2.402;2023-02-15T01:41:13;60.10;;;31.10;;
65853;SDS011;52627;48.838;2.402;2023-02-15T01:44:02;56.00;;;32.60;;
65853;SDS011;52627;48.838;2.402;2023-02-15T01:46:35;58.80;;;31.40;;
65853;SDS011;52627;48.838;2.402;2023-02-15T01:49:13;57.20;;;30.30;;
65853;SDS011;52627;48.838;2.402;2023-02-15T01:51:45;56.20;;;30.20;;
65853;SDS011;52627;48.838;2.402;2023-02-15T01:54:22;58.20;;;29.50;;
65853;SDS011;52627;48.838;2.402;2023-02-15T01:56:54;58.10;;;31.70;;
65853;SDS011;52627;48.838;2.402;2023-02-15T01:59:23;53.70;;;30.80;;
65853;SDS011;52627;48.838;2.402;2023-02-15T02:01:54;57.40;;;32.50;;
65853;SDS011;52627;48.838;2.402;2023-02-15T02:04:30;59.90;;;32.40;;
65853;SDS011;52627;48.838;2.402;2023-02-15T02:07:02;56.80;;;31.60;;
65853;SDS011;52627;48.838;2.402;2023-02-15T02:09:30;60.30;;;34.30;;
65853;SDS011;52627;48.838;2.402;2023-02-15T02:11:57;62.20;;;32.90;;
65853;SDS011;52627;48.838;2.402;2023-02-15T02:14:26;64.10;;;35.00;;
65853;SDS011;52627;48.838;2.402;2023-02-15T02:17:21;60.20;;;32.50;;
65853;SDS011;52627;48.838;2.402;2023-02-15T02:26:02;63.20;;;32.90;;
65853;SDS011;52627;48.838;2.402;2023-02-15T02:35:06;63.80;;;34.10;;
65853;SDS011;52627;48.838;2.402;2023-02-15T02:37:52;65.90;;;35.30;;
65853;SDS011;52627;48.838;2.402;2023-02-15T02:43:31;69.20;;;36.40;;
65853;SDS011;52627;48.838;2.402;2023-02-15T02:46:12;64.00;;;37.10;;
65853;SDS011;52627;48.838;2.402;2023-02-15T02:48:43;70.20;;;37.80;;
65853;SDS011;52627;48.838;2.402;2023-02-15T02:51:10;68.40;;;35.60;;
65853;SDS011;52627;48.838;2.402;2023-02-15T02:53:38;62.30;;;35.10;;
65853;SDS011;52627;48.838;2.402;2023-02-15T02:56:20;65.50;;;35.40;;
65853;SDS011;52627;48.838;2.402;2023-02-15T02:58:54;64.50;;;34.90;;
65853;SDS011;52627;48.838;2.402;2023-02-15T03:01:51;64.00;;;34.80;;
65853;SDS011;52627;48.838;2.402;2023-02-15T03:04:25;62.70;;;34.00;;
65853;SDS011;52627;48.838;2.402;2023-02-15T03:07:02;66.20;;;34.90;;
65853;SDS011;52627;48.838;2.402;2023-02-15T03:09:37;62.80;;;35.70;;
65853;SDS011;52627;48.838;2.402;2023-02-15T03:12:14;65.40;;;35.70;;
65853;SDS011;52627;48.838;2.402;2023-02-15T03:14:52;65.80;;;35.20;;
65853;SDS011;52627;48.838;2.402;2023-02-15T03:17:23;66.60;;;34.20;;
65853;SDS011;52627;48.838;2.402;2023-02-15T03:19:57;60.80;;;33.20;;
65853;SDS011;52627;48.838;2.402;2023-02-15T03:22:35;65.40;;;34.20;;
65853;SDS011;52627;48.838;2.402;2023-02-15T03:27:59;63.70;;;34.30;;
65853;SDS011;52627;48.838;2.402;2023-02-15T03:30:29;60.40;;;35.10;;
65853;SDS011;52627;48.838;2.402;2023-02-15T03:32:59;66.00;;;36.00;;
65853;SDS011;52627;48.838;2.402;2023-02-15T03:35:34;74.80;;;38.50;;
65853;SDS011;52627;48.838;2.402;2023-02-15T03:38:07;65.90;;;37.00;;
65853;SDS011;52627;48.838;2.402;2023-02-15T03:40:38;64.60;;;36.30;;
65853;SDS011;52627;48.838;2.402;2023-02-15T03:46:24;64.60;;;36.40;;
65853;SDS011;52627;48.838;2.402;2023-02-15T03:49:02;63.70;;;35.60;;
65853;SDS011;52627;48.838;2.402;2023-02-15T03:51:35;68.20;;;35.30;;
65853;SDS011;52627;48.838;2.402;2023-02-15T03:54:10;68.30;;;36.20;;
65853;SDS011;52627;48.838;2.402;2023-02-15T03:56:41;64.90;;;35.80;;
65853;SDS011;52627;48.838;2.402;2023-02-15T03:59:29;71.20;;;36.40;;
65853;SDS011;52627;48.838;2.402;2023-02-15T04:02:28;64.60;;;36.40;;
65853;SDS011;52627;48.838;2.402;2023-02-15T04:05:12;70.80;;;39.30;;
65853;SDS011;52627;48.838;2.402;2023-02-15T04:07:40;63.10;;;36.40;;
65853;SDS011;52627;48.838;2.402;2023-02-15T04:10:07;70.80;;;36.40;;
65853;SDS011;52627;48.838;2.402;2023-02-15T04:12:53;66.50;;;37.70;;
65853;SDS011;52627;48.838;2.402;2023-02-15T04:15:21;69.40;;;39.00;;
65853;SDS011;52627;48.838;2.402;2023-02-15T04:18:06;62.60;;;36.00;;
65853;SDS011;52627;48.838;2.402;2023-02-15T04:20:34;71.10;;;36.90;;
65853;SDS011;52627;48.838;2.402;2023-02-15T04:23:20;69.60;;;39.10;;
65853;SDS011;52627;48.838;2.402;2023-02-15T04:26:06;71.10;;;38.10;;
65853;SDS011;52627;48.838;2.402;2023-02-15T04:28:33;69.10;;;39.50;;
65853;SDS011;52627;48.838;2.402;2023-02-15T04:31:01;70.10;;;38.20;;
65853;SDS011;52627;48.838;2.402;2023-02-15T04:33:28;64.50;;;39.60;;
65853;SDS011;52627;48.838;2.402;2023-02-15T04:35:56;75.20;;;38.70;;
65853;SDS011;52627;48.838;2.402;2023-02-15T04:38:23;68.00;;;38.70;;
65853;SDS011;52627;48.838;2.402;2023-02-15T04:40:51;63.40;;;37.20;;
65853;SDS011;52627;48.838;2.402;2023-02-15T04:43:19;71.50;;;40.40;;
65853;SDS011;52627;48.838;2.402;2023-02-15T04:45:48;72.40;;;38.20;;
65853;SDS011;52627;48.838;2.402;2023-02-15T04:48:17;67.20;;;37.80;;
65853;SDS011;52627;48.838;2.402;2023-02-15T04:50:45;65.70;;;37.30;;
65853;SDS011;52627;48.838;2.402;2023-02-15T04:53:12;72.40;;;38.20;;
65853;SDS011;52627;48.838;2.402;2023-02-15T04:55:40;70.80;;;37.50;;
65853;SDS011;52627;48.838;2.402;2023-02-15T04:58:08;70.00;;;40.30;;
65853;SDS011;52627;48.838;2.402;2023-02-15T05:00:35;72.40;;;38.60;;
65853;SDS011;52627;48.838;2.402;2023-02-15T05:03:03;66.80;;;38.20;;
65853;SDS011;52627;48.838;2.402;2023-02-15T05:05:30;71.10;;;37.70;;
65853;SDS011;52627;48.838;2.402;2023-02-15T05:07:58;70.20;;;39.80;;
65853;SDS011;52627;48.838;2.402;2023-02-15T05:10:25;66.50;;;37.00;;
65853;SDS011;52627;48.838;2.402;2023-02-15T05:12:53;67.90;;;37.20;;
65853;SDS011;52627;48.838;2.402;2023-02-15T05:15:20;69.00;;;37.30;;
65853;SDS011;52627;48.838;2.402;2023-02-15T05:17:48;65.30;;;36.80;;
65853;SDS011;52627;48.838;2.402;2023-02-15T05:20:15;67.00;;;38.70;;
65853;SDS011;52627;48.838;2.402;2023-02-15T05:22:43;68.40;;;38.90;;
65853;SDS011;52627;48.838;2.402;2023-02-15T05:25:10;71.90;;;36.80;;
65853;SDS011;52627;48.838;2.402;2023-02-15T05:27:56;71.50;;;38.70;;
65853;SDS011;52627;48.838;2.402;2023-02-15T05:30:41;66.90;;;36.70;;
65853;SDS011;52627;48.838;2.402;2023-02-15T05:33:10;75.70;;;38.60;;
65853;SDS011;52627;48.838;2.402;2023-02-15T05:35:37;68.50;;;36.80;;
65853;SDS011;52627;48.838;2.402;2023-02-15T05:38:05;67.50;;;36.80;;
65853;SDS011;52627;48.838;2.402;2023-02-15T05:40:32;72.40;;;38.60;;
65853;SDS011;52627;48.838;2.402;2023-02-15T05:42:59;67.50;;;37.10;;
65853;SDS011;52627;48.838;2.402;2023-02-15T05:45:27;74.20;;;36.40;;
65853;SDS011;52627;48.838;2.402;2023-02-15T05:47:54;66.20;;;38.00;;
65853;SDS011;52627;48.838;2.402;2023-02-15T05:50:22;71.10;;;37.40;;
65853;SDS011;52627;48.838;2.402;2023-02-15T05:52:50;69.40;;;38.10;;
65853;SDS011;52627;48.838;2.402;2023-02-15T05:55:19;71.00;;;38.20;;
65853;SDS011;52627;48.838;2.402;2023-02-15T05:57:46;70.10;;;36.90;;
65853;SDS011;52627;48.838;2.402;2023-02-15T06:00:14;68.20;;;37.30;;
65853;SDS011;52627;48.838;2.402;2023-02-15T06:02:42;70.00;;;37.40;;
65853;SDS011;52627;48.838;2.402;2023-02-15T06:05:10;73.40;;;37.20;;
65853;SDS011;52627;48.838;2.402;2023-02-15T06:07:37;71.50;;;38.40;;
65853;SDS011;52627;48.838;2.402;2023-02-15T06:10:05;74.20;;;37.30;;
65853;SDS011;52627;48.838;2.402;2023-02-15T06:12:33;73.30;;;38.80;;
65853;SDS011;52627;48.838;2.402;2023-02-15T06:15:01;65.10;;;35.70;;
65853;SDS011;52627;48.838;2.402;2023-02-15T06:17:28;70.60;;;37.70;;
65853;SDS011;52627;48.838;2.402;2023-02-15T06:19:56;66.30;;;34.70;;
65853;SDS011;52627;48.838;2.402;2023-02-15T06:22:23;68.70;;;37.00;;
65853;SDS011;52627;48.838;2.402;2023-02-15T06:24:51;69.50;;;37.10;;
65853;SDS011;52627;48.838;2.402;2023-02-15T06:27:18;70.50;;;36.70;;
65853;SDS011;52627;48.838;2.402;2023-02-15T06:29:46;67.20;;;35.50;;
65853;SDS011;52627;48.838;2.402;2023-02-15T06:32:13;67.50;;;37.10;;
65853;SDS011;52627;48.838;2.402;2023-02-15T06:34:40;70.90;;;37.60;;
65853;SDS011;52627;48.838;2.402;2023-02-15T06:37:08;70.40;;;37.40;;
65853;SDS011;52627;48.838;2.402;2023-02-15T06:39:35;66.40;;;35.30;;
65853;SDS011;52627;48.838;2.402;2023-02-15T06:42:03;68.00;;;35.70;;
65853;SDS011;52627;48.838;2.402;2023-02-15T06:44:30;64.60;;;37.70;;
65853;SDS011;52627;48.838;2.402;2023-02-15T06:46:58;68.40;;;34.10;;
65853;SDS011;52627;48.838;2.402;2023-02-15T06:49:25;72.50;;;36.20;;
65853;SDS011;52627;48.838;2.402;2023-02-15T06:51:53;70.40;;;36.50;;
65853;SDS011;52627;48.838;2.402;2023-02-15T06:54:20;72.70;;;37.40;;
65853;SDS011;52627;48.838;2.402;2023-02-15T06:56:48;68.80;;;35.10;;
65853;SDS011;52627;48.838;2.402;2023-02-15T06:59:15;72.30;;;37.60;;
65853;SDS011;52627;48.838;2.402;2023-02-15T07:01:43;71.30;;;35.80;;
65853;SDS011;52627;48.838;2.402;2023-02-15T07:04:10;73.50;;;36.70;;
65853;SDS011;52627;48.838;2.402;2023-02-15T07:06:38;67.70;;;35.30;;
65853;SDS011;52627;48.838;2.402;2023-02-15T07:09:06;71.10;;;36.80;;
65853;SDS011;52627;48.838;2.402;2023-02-15T07:11:33;67.20;;;35.30;;
65853;SDS011;52627;48.838;2.402;2023-02-15T07:14:19;64.90;;;35.90;;
65853;SDS011;52627;48.838;2.402;2023-02-15T07:16:47;68.80;;;34.70;;
65853;SDS011;52627;48.838;2.402;2023-02-15T07:19:14;63.80;;;36.80;;
65853;SDS011;52627;48.838;2.402;2023-02-15T07:21:43;66.90;;;36.00;;
65853;SDS011;52627;48.838;2.402;2023-02-15T07:24:12;63.90;;;33.10;;
65853;SDS011;52627;48.838;2.402;2023-02-15T07:26:41;67.50;;;35.40;;
65853;SDS011;52627;48.838;2.402;2023-02-15T07:29:08;73.90;;;36.50;;
65853;SDS011;52627;48.838;2.402;2023-02-15T07:31:36;66.30;;;35.80;;
65853;SDS011;52627;48.838;2.402;2023-02-15T07:34:05;69.60;;;34.70;;
65853;SDS011;52627;48.838;2.402;2023-02-15T07:36:34;67.00;;;36.10;;
65853;SDS011;52627;48.838;2.402;2023-02-15T07:39:02;64.30;;;36.00;;
65853;SDS011;52627;48.838;2.402;2023-02-15T07:41:30;71.30;;;35.60;;
65853;SDS011;52627;48.838;2.402;2023-02-15T07:43:58;61.10;;;33.90;;
65853;SDS011;52627;48.838;2.402;2023-02-15T07:46:26;68.90;;;36.00;;
65853;SDS011;52627;48.838;2.402;2023-02-15T07:48:53;70.20;;;35.00;;
65853;SDS011;52627;48.838;2.402;2023-02-15T07:51:21;75.70;;;36.10;;
65853;SDS011;52627;48.838;2.402;2023-02-15T07:53:48;69.00;;;36.30;;
65853;SDS011;52627;48.838;2.402;2023-02-15T07:56:18;70.10;;;36.70;;
65853;SDS011;52627;48.838;2.402;2023-02-15T07:58:45;66.20;;;35.60;;
65853;SDS011;52627;48.838;2.402;2023-02-15T08:01:33;69.00;;;36.20;;
65853;SDS011;52627;48.838;2.402;2023-02-15T08:04:04;68.90;;;35.70;;
65853;SDS011;52627;48.838;2.402;2023-02-15T08:06:34;70.10;;;35.40;;
65853;SDS011;52627;48.838;2.402;2023-02-15T08:09:07;68.90;;;35.70;;
65853;SDS011;52627;48.838;2.402;2023-02-15T08:11:36;64.10;;;33.80;;
65853;SDS011;52627;48.838;2.402;2023-02-15T08:16:47;69.70;;;36.20;;
65853;SDS011;52627;48.838;2.402;2023-02-15T08:19:27;64.90;;;34.50;;
65853;SDS011;52627;48.838;2.402;2023-02-15T08:22:04;69.90;;;34.50;;
65853;SDS011;52627;48.838;2.402;2023-02-15T08:24:36;71.20;;;37.60;;
65853;SDS011;52627;48.838;2.402;2023-02-15T08:27:06;68.40;;;36.90;;
65853;SDS011;52627;48.838;2.402;2023-02-15T08:29:36;68.20;;;34.70;;
65853;SDS011;52627;48.838;2.402;2023-02-15T08:32:07;75.60;;;37.00;;
65853;SDS011;52627;48.838;2.402;2023-02-15T08:34:39;65.00;;;35.70;;
65853;SDS011;52627;48.838;2.402;2023-02-15T08:37:07;70.80;;;36.10;;
65853;SDS011;52627;48.838;2.402;2023-02-15T08:39:35;64.40;;;34.30;;
65853;SDS011;52627;48.838;2.402;2023-02-15T08:42:03;71.10;;;37.20;;
65853;SDS011;52627;48.838;2.402;2023-02-15T08:44:30;70.20;;;36.80;;
65853;SDS011;52627;48.838;2.402;2023-02-15T08:46:58;62.20;;;35.40;;
65853;SDS011;52627;48.838;2.402;2023-02-15T08:49:31;68.20;;;37.30;;
65853;SDS011;52627;48.838;2.402;2023-02-15T08:51:59;65.20;;;37.30;;
65853;SDS011;52627;48.838;2.402;2023-02-15T08:54:26;68.70;;;38.80;;
65853;SDS011;52627;48.838;2.402;2023-02-15T08:56:54;71.60;;;37.10;;
65853;SDS011;52627;48.838;2.402;2023-02-15T08:59:22;75.10;;;37.50;;
65853;SDS011;52627;48.838;2.402;2023-02-15T09:01:51;65.80;;;36.20;;
65853;SDS011;52627;48.838;2.402;2023-02-15T09:04:20;63.70;;;35.10;;
65853;SDS011;52627;48.838;2.402;2023-02-15T09:06:48;70.50;;;36.90;;
65853;SDS011;52627;48.838;2.402;2023-02-15T09:09:18;67.20;;;37.10;;
65853;SDS011;52627;48.838;2.402;2023-02-15T09:11:48;67.60;;;37.10;;
65853;SDS011;52627;48.838;2.402;2023-02-15T09:14:23;66.00;;;35.70;;
65853;SDS011;52627;48.838;2.402;2023-02-15T09:16:53;62.40;;;36.30;;
65853;SDS011;52627;48.838;2.402;2023-02-15T09:19:22;62.80;;;35.80;;
65853;SDS011;52627;48.838;2.402;2023-02-15T09:21:50;72.90;;;40.10;;
65853;SDS011;52627;48.838;2.402;2023-02-15T09:24:18;64.40;;;36.00;;
65853;SDS011;52627;48.838;2.402;2023-02-15T09:26:47;67.80;;;37.30;;
65853;SDS011;52627;48.838;2.402;2023-02-15T09:29:16;68.80;;;38.10;;
65853;SDS011;52627;48.838;2.402;2023-02-15T09:31:46;65.40;;;37.60;;
65853;SDS011;52627;48.838;2.402;2023-02-15T09:34:19;64.40;;;37.10;;
65853;SDS011;52627;48.838;2.402;2023-02-15T09:36:48;64.60;;;38.10;;
65853;SDS011;52627;48.838;2.402;2023-02-15T09:39:18;65.00;;;37.80;;
65853;SDS011;52627;48.838;2.402;2023-02-15T09:47:25;64.30;;;36.60;;
65853;SDS011;52627;48.838;2.402;2023-02-15T10:09:50;65.30;;;37.70;;
65853;SDS011;52627;48.838;2.402;2023-02-15T10:20:59;62.70;;;36.10;;
65853;SDS011;52627;48.838;2.402;2023-02-15T10:23:59;61.70;;;37.00;;
65853;SDS011;52627;48.838;2.402;2023-02-15T10:26:38;62.80;;;37.50;;
65853;SDS011;52627;48.838;2.402;2023-02-15T10:32:27;67.20;;;39.70;;
65853;SDS011;52627;48.838;2.402;2023-02-15T10:35:01;63.30;;;38.00;;
65853;SDS011;52627;48.838;2.402;2023-02-15T10:40:37;73.40;;;42.70;;
65853;SDS011;52627;48.838;2.402;2023-02-15T10:46:50;66.30;;;41.30;;
65853;SDS011;52627;48.838;2.402;2023-02-15T10:55:24;62.60;;;41.00;;
65853;SDS011;52627;48.838;2.402;2023-02-15T11:00:44;61.50;;;41.10;;
65853;SDS011;52627;48.838;2.402;2023-02-15T11:03:40;69.20;;;41.80;;
65853;SDS011;52627;48.838;2.402;2023-02-15T11:06:34;64.10;;;39.70;;
65853;SDS011;52627;48.838;2.402;2023-02-15T11:09:09;64.30;;;40.00;;
65853;SDS011;52627;48.838;2.402;2023-02-15T11:11:41;62.30;;;39.70;;
65853;SDS011;52627;48.838;2.402;2023-02-15T11:14:20;66.20;;;39.40;;
65853;SDS011;52627;48.838;2.402;2023-02-15T11:17:15;65.50;;;40.60;;
65853;SDS011;52627;48.838;2.402;2023-02-15T11:19:58;62.20;;;39.40;;
65853;SDS011;52627;48.838;2.402;2023-02-15T11:22:31;61.90;;;39.30;;
65853;SDS011;52627;48.838;2.402;2023-02-15T11:25:01;63.50;;;41.40;;
65853;SDS011;52627;48.838;2.402;2023-02-15T11:30:15;62.30;;;40.90;;
65853;SDS011;52627;48.838;2.402;2023-02-15T11:32:57;63.70;;;42.60;;
65853;SDS011;52627;48.838;2.402;2023-02-15T11:35:32;63.10;;;40.90;;
65853;SDS011;52627;48.838;2.402;2023-02-15T11:38:17;60.50;;;42.00;;
65853;SDS011;52627;48.838;2.402;2023-02-15T11:40:49;63.30;;;42.40;;
65853;SDS011;52627;48.838;2.402;2023-02-15T11:43:26;64.80;;;41.50;;
65853;SDS011;52627;48.838;2.402;2023-02-15T11:45:57;65.50;;;43.10;;
65853;SDS011;52627;48.838;2.402;2023-02-15T11:48:25;62.90;;;41.50;;
65853;SDS011;52627;48.838;2.402;2023-02-15T11:50:52;60.10;;;39.90;;
65853;SDS011;52627;48.838;2.402;2023-02-15T11:53:21;62.20;;;42.50;;
65853;SDS011;52627;48.838;2.402;2023-02-15T11:55:52;62.40;;;41.40;;
65853;SDS011;52627;48.838;2.402;2023-02-15T11:58:33;59.60;;;40.20;;
65853;SDS011;52627;48.838;2.402;2023-02-15T12:01:33;59.20;;;37.80;;
65853;SDS011;52627;48.838;2.402;2023-02-15T12:07:00;59.80;;;38.80;;
65853;SDS011;52627;48.838;2.402;2023-02-15T12:09:40;60.60;;;38.40;;
65853;SDS011;52627;48.838;2.402;2023-02-15T12:14:53;54.60;;;37.10;;
65853;SDS011;52627;48.838;2.402;2023-02-15T12:17:24;51.60;;;35.40;;
65853;SDS011;52627;48.838;2.402;2023-02-15T12:19:56;54.50;;;36.30;;
65853;SDS011;52627;48.838;2.402;2023-02-15T12:22:30;52.70;;;35.10;;
65853;SDS011;52627;48.838;2.402;2023-02-15T12:25:02;52.10;;;35.10;;
65853;SDS011;52627;48.838;2.402;2023-02-15T12:27:43;49.70;;;33.90;;
65853;SDS011;52627;48.838;2.402;2023-02-15T12:30:22;52.70;;;34.70;;
65853;SDS011;52627;48.838;2.402;2023-02-15T12:33:02;51.00;;;34.30;;
65853;SDS011;52627;48.838;2.402;2023-02-15T12:35:35;55.10;;;35.10;;
65853;SDS011;52627;48.838;2.402;2023-02-15T12:38:19;54.40;;;34.80;;
65853;SDS011;52627;48.838;2.402;2023-02-15T12:40:58;55.00;;;34.40;;
65853;SDS011;52627;48.838;2.402;2023-02-15T12:43:34;49.00;;;32.70;;
65853;SDS011;52627;48.838;2.402;2023-02-15T12:46:22;53.30;;;34.70;;
65853;SDS011;52627;48.838;2.402;2023-02-15T12:51:52;49.80;;;35.00;;
65853;SDS011;52627;48.838;2.402;2023-02-15T12:54:41;48.70;;;33.80;;
65853;SDS011;52627;48.838;2.402;2023-02-15T12:57:32;51.20;;;33.80;;
65853;SDS011;52627;48.838;2.402;2023-02-15T13:00:04;53.80;;;33.90;;
65853;SDS011;52627;48.838;2.402;2023-02-15T13:02:40;49.00;;;33.40;;
65853;SDS011;52627;48.838;2.402;2023-02-15T13:05:22;46.90;;;33.50;;
65853;SDS011;52627;48.838;2.402;2023-02-15T13:07:57;50.40;;;33.10;;
65853;SDS011;52627;48.838;2.402;2023-02-15T13:10:29;47.40;;;32.40;;
65853;SDS011;52627;48.838;2.402;2023-02-15T13:12:59;53.50;;;33.10;;
65853;SDS011;52627;48.838;2.402;2023-02-15T13:15:36;47.90;;;31.60;;
65853;SDS011;52627;48.838;2.402;2023-02-15T13:18:36;49.80;;;33.20;;
65853;SDS011;52627;48.838;2.402;2023-02-15T13:21:16;51.20;;;32.60;;
65853;SDS011;52627;48.838;2.402;2023-02-15T13:23:47;50.30;;;34.00;;
65853;SDS011;52627;48.838;2.402;2023-02-15T13:26:20;52.20;;;34.60;;
65853;SDS011;52627;48.838;2.402;2023-02-15T13:31:26;52.80;;;33.20;;
65853;SDS011;52627;48.838;2.402;2023-02-15T13:34:00;51.10;;;33.50;;
65853;SDS011;52627;48.838;2.402;2023-02-15T13:36:57;58.30;;;32.60;;
65853;SDS011;52627;48.838;2.402;2023-02-15T13:39:37;51.10;;;32.90;;
65853;SDS011;52627;48.838;2.402;2023-02-15T13:42:20;50.00;;;32.40;;
65853;SDS011;52627;48.838;2.402;2023-02-15T13:54:22;48.80;;;31.90;;
65853;SDS011;52627;48.838;2.402;2023-02-15T14:00:27;49.70;;;32.20;;
65853;SDS011;52627;48.838;2.402;2023-02-15T14:06:38;49.70;;;30.90;;
65853;SDS011;52627;48.838;2.402;2023-02-15T14:26:56;47.00;;;30.70;;
65853;SDS011;52627;48.838;2.402;2023-02-15T14:29:47;43.90;;;29.20;;
65853;SDS011;52627;48.838;2.402;2023-02-15T14:32:42;50.50;;;30.70;;
65853;SDS011;52627;48.838;2.402;2023-02-15T14:35:15;50.90;;;31.50;;
65853;SDS011;52627;48.838;2.402;2023-02-15T14:49:52;46.50;;;29.70;;
65853;SDS011;52627;48.838;2.402;2023-02-15T14:52:19;50.20;;;32.20;;
65853;SDS011;52627;48.838;2.402;2023-02-15T14:59:59;48.10;;;30.50;;
65853;SDS011;52627;48.838;2.402;2023-02-15T15:02:44;47.10;;;30.60;;
65853;SDS011;52627;48.838;2.402;2023-02-15T15:05:25;48.30;;;30.30;;
65853;SDS011;52627;48.838;2.402;2023-02-15T15:07:57;45.70;;;29.90;;
65853;SDS011;52627;48.838;2.402;2023-02-15T15:12:54;49.80;;;31.10;;
65853;SDS011;52627;48.838;2.402;2023-02-15T15:18:08;50.90;;;31.90;;
65853;SDS011;52627;48.838;2.402;2023-02-15T15:20:47;47.70;;;32.10;;
65853;SDS011;52627;48.838;2.402;2023-02-15T15:25:46;50.30;;;30.70;;
65853;SDS011;52627;48.838;2.402;2023-02-15T15:34:21;44.20;;;29.80;;
65853;SDS011;52627;48.838;2.402;2023-02-15T15:37:09;44.40;;;28.90;;
65853;SDS011;52627;48.838;2.402;2023-02-15T15:42:48;46.60;;;28.80;;
65853;SDS011;52627;48.838;2.402;2023-02-15T15:45:50;45.60;;;28.80;;
65853;SDS011;52627;48.838;2.402;2023-02-15T15:48:29;44.40;;;27.90;;
65853;SDS011;52627;48.838;2.402;2023-02-15T15:51:20;43.50;;;28.00;;
65853;SDS011;52627;48.838;2.402;2023-02-15T15:53:50;39.80;;;26.60;;
65853;SDS011;52627;48.838;2.402;2023-02-15T15:56:26;42.70;;;27.30;;
65853;SDS011;52627;48.838;2.402;2023-02-15T15:59:02;44.70;;;27.70;;
65853;SDS011;52627;48.838;2.402;2023-02-15T16:01:39;43.10;;;28.10;;
65853;SDS011;52627;48.838;2.402;2023-02-15T16:04:13;45.60;;;28.90;;
65853;SDS011;52627;48.838;2.402;2023-02-15T16:06:52;42.70;;;28.10;;
65853;SDS011;52627;48.838;2.402;2023-02-15T16:09:26;42.20;;;27.40;;
65853;SDS011;52627;48.838;2.402;2023-02-15T16:11:56;45.30;;;29.70;;
65853;SDS011;52627;48.838;2.402;2023-02-15T16:14:35;43.00;;;27.50;;
65853;SDS011;52627;48.838;2.402;2023-02-15T16:17:14;41.60;;;27.90;;
65853;SDS011;52627;48.838;2.402;2023-02-15T16:19:46;39.60;;;26.10;;
65853;SDS011;52627;48.838;2.402;2023-02-15T16:22:17;44.90;;;26.90;;
65853;SDS011;52627;48.838;2.402;2023-02-15T16:25:15;41.40;;;25.80;;
65853;SDS011;52627;48.838;2.402;2023-02-15T16:27:50;39.00;;;25.80;;
65853;SDS011;52627;48.838;2.402;2023-02-15T16:32:52;37.60;;;25.10;;
65853;SDS011;52627;48.838;2.402;2023-02-15T16:35:39;36.30;;;24.60;;
65853;SDS011;52627;48.838;2.402;2023-02-15T16:38:10;39.30;;;24.70;;
65853;SDS011;52627;48.838;2.402;2023-02-15T16:40:41;38.40;;;24.90;;
65853;SDS011;52627;48.838;2.402;2023-02-15T16:43:16;37.60;;;24.10;;
65853;SDS011;52627;48.838;2.402;2023-02-15T16:45:46;37.90;;;24.30;;
65853;SDS011;52627;48.838;2.402;2023-02-15T16:48:24;40.00;;;24.50;;
65853;SDS011;52627;48.838;2.402;2023-02-15T16:50:55;36.40;;;24.50;;
65853;SDS011;52627;48.838;2.402;2023-02-15T16:53:26;35.90;;;23.50;;
65853;SDS011;52627;48.838;2.402;2023-02-15T16:55:57;40.90;;;25.20;;
65853;SDS011;52627;48.838;2.402;2023-02-15T16:58:45;35.80;;;24.50;;
65853;SDS011;52627;48.838;2.402;2023-02-15T17:01:14;40.10;;;24.20;;
65853;SDS011;52627;48.838;2.402;2023-02-15T17:03:42;35.00;;;24.00;;
65853;SDS011;52627;48.838;2.402;2023-02-15T17:06:25;41.10;;;24.60;;
65853;SDS011;52627;48.838;2.402;2023-02-15T17:09:03;37.90;;;23.70;;
65853;SDS011;52627;48.838;2.402;2023-02-15T17:11:40;35.90;;;23.40;;
65853;SDS011;52627;48.838;2.402;2023-02-15T17:16:52;37.20;;;24.30;;
65853;SDS011;52627;48.838;2.402;2023-02-15T17:19:27;36.90;;;23.70;;
65853;SDS011;52627;48.838;2.402;2023-02-15T17:21:59;35.50;;;23.90;;
65853;SDS011;52627;48.838;2.402;2023-02-15T17:27:27;36.80;;;24.30;;
65853;SDS011;52627;48.838;2.402;2023-02-15T17:29:58;40.60;;;25.10;;
65853;SDS011;52627;48.838;2.402;2023-02-15T17:32:30;37.00;;;25.30;;
65853;SDS011;52627;48.838;2.402;2023-02-15T17:35:19;41.60;;;26.40;;
65853;SDS011;52627;48.838;2.402;2023-02-15T17:37:48;41.40;;;25.80;;
65853;SDS011;52627;48.838;2.402;2023-02-15T17:40:21;43.70;;;26.50;;